createdAt,value
2023-02-18T00:00:04.010Z,9.8
2023-02-18T00:10:06.353Z,9.8
2023-02-18T00:20:08.540Z,9.7
2023-02-18T00:30:10.803Z,9.7
2023-02-18T00:40:12.576Z,9.7
2023-02-18T00:50:14.343Z,9.7
2023-02-18T01:00:16.424Z,9.7
2023-02-18T01:10:19.263Z,9.7
2023-02-18T01:20:20.372Z,9.8
2023-02-18T01:30:22.191Z,9.8
2023-02-18T01:50:26.587Z,9.8
2023-02-18T02:00:28.464Z,9.8
2023-02-18T02:10:31.085Z,9.8
2023-02-18T02:20:33.322Z,9.8
2023-02-18T02:30:35.353Z,9.8
2023-02-18T02:40:37.351Z,9.8
2023-02-18T02:50:39.250Z,9.7
2023-02-18T03:10:44.557Z,9.7
2023-02-18T03:20:47.011Z,9.7
2023-02-18T03:30:49.499Z,9.6
2023-02-18T03:32:16.973Z,9.6
2023-02-18T03:51:01.757Z,9.7
2023-02-18T04:01:03.959Z,9.7
2023-02-18T04:11:06.340Z,9.7
2023-02-18T04:21:08.963Z,9.7
2023-02-18T04:31:11.277Z,9.7
2023-02-18T04:41:12.878Z,9.8
2023-02-18T04:51:15.409Z,9.8
2023-02-18T05:01:17.821Z,9.8
2023-02-18T05:11:19.776Z,9.7
2023-02-18T05:21:21.740Z,9.7
2023-02-18T05:31:24.171Z,9.7
2023-02-18T05:41:26.182Z,9.7
2023-02-18T05:51:28.481Z,9.6
2023-02-18T06:01:30.209Z,9.6
2023-02-18T06:11:32.020Z,9.6
2023-02-18T06:21:34.281Z,9.6
2023-02-18T06:31:36.694Z,9.6
2023-02-18T06:41:38.641Z,9.7
2023-02-18T07:11:45.010Z,9.6
2023-02-18T07:31:49.174Z,9.6
2023-02-18T07:41:51.403Z,9.6
2023-02-18T07:51:53.537Z,9.6
2023-02-18T08:01:55.624Z,9.6
2023-02-18T08:11:57.678Z,9.6
2023-02-18T08:22:00.283Z,9.6
2023-02-18T08:42:04.832Z,9.7
2023-02-18T08:52:06.597Z,9.6
2023-02-18T09:02:09.040Z,9.4
2023-02-18T09:12:11.174Z,9.5
2023-02-18T09:22:12.971Z,9.5
2023-02-18T09:32:20.063Z,9.3
2023-02-18T09:42:17.720Z,9.2
2023-02-18T09:52:19.588Z,9.2
2023-02-18T10:02:22.142Z,9.3
2023-02-18T10:12:23.922Z,9.3
2023-02-18T10:22:26.173Z,9.2
2023-02-18T10:32:28.766Z,9.1
2023-02-18T10:42:30.517Z,9
2023-02-18T10:52:32.818Z,9
2023-02-18T11:02:34.673Z,8.8
2023-02-18T11:12:36.949Z,8.7
2023-02-18T11:22:39.410Z,8.7
2023-02-18T11:32:41.930Z,8.8
2023-02-18T11:42:43.807Z,8.8
2023-02-18T11:52:46.484Z,8.8
2023-02-18T12:02:48.211Z,8.9
2023-02-18T12:12:50.739Z,8.9
2023-02-18T12:22:52.835Z,8.9
2023-02-18T12:32:55.224Z,8.9
2023-02-18T12:42:57.382Z,9
2023-02-18T13:03:01.774Z,9.2
2023-02-18T13:13:03.691Z,9.2
2023-02-18T13:23:05.733Z,9.2
2023-02-18T13:33:07.531Z,9.2
2023-02-18T13:43:09.503Z,9.2
2023-02-18T13:53:11.851Z,9.2
2023-02-18T14:03:14.328Z,9.2
2023-02-18T14:13:16.474Z,9.3
2023-02-18T14:23:18.781Z,9.4
2023-02-18T14:33:20.793Z,9.5
2023-02-18T14:43:22.712Z,9.5
2023-02-18T14:53:24.509Z,9.7
2023-02-18T15:03:26.452Z,9.8
2023-02-18T15:13:28.952Z,9.9
2023-02-18T15:33:32.596Z,10
2023-02-18T15:43:35.161Z,10.1
2023-02-18T15:53:37.013Z,10.2
2023-02-18T16:03:39.678Z,10.3
2023-02-18T16:13:42.010Z,10.3
2023-02-18T16:23:44.426Z,10.3
2023-02-18T16:33:46.332Z,10.4
2023-02-18T16:43:48.645Z,10.3
2023-02-18T16:53:51.134Z,10.3
2023-02-18T17:13:55.828Z,10.2
2023-02-18T17:23:57.600Z,10.1
2023-02-18T17:34:00.054Z,10.1
2023-02-18T17:44:02.057Z,10
2023-02-18T17:54:04.600Z,10
2023-02-18T18:14:09.057Z,9.8
2023-02-18T18:24:11.239Z,9.8
2023-02-18T18:34:13.535Z,9.9
2023-02-18T18:44:15.985Z,9.9
2023-02-18T18:54:18.096Z,9.9
2023-02-18T19:04:20.463Z,9.9
2023-02-18T19:14:22.921Z,9.9
2023-02-18T19:24:24.798Z,9.8
2023-02-18T19:34:27.293Z,9.8
2023-02-18T19:44:28.995Z,9.7
2023-02-18T20:04:33.017Z,9.7
2023-02-18T20:14:35.533Z,9.7
2023-02-18T20:24:37.861Z,9.7
2023-02-18T20:34:39.658Z,9.6
2023-02-18T20:44:41.811Z,9.6
2023-02-18T20:54:44.369Z,9.5
2023-02-18T21:04:46.119Z,9.5
2023-02-18T21:14:47.913Z,9.4
2023-02-18T21:24:50.422Z,9.4
2023-02-18T21:34:52.446Z,9.4
2023-02-18T21:44:54.662Z,9.4
2023-02-18T21:54:56.866Z,9.5
2023-02-18T22:15:00.623Z,9.6
2023-02-18T22:25:02.968Z,9.6
2023-02-18T22:35:04.872Z,9.5
2023-02-18T22:45:07.197Z,9.5
2023-02-18T23:15:14.234Z,9.6
2023-02-18T23:25:16.214Z,9.5
2023-02-18T23:35:18.188Z,9.5
2023-02-18T23:45:20.800Z,9.4
2023-02-18T23:55:23.190Z,9.5
